createdAt,value
2023-03-01T00:01:39.755Z,13.27
2023-03-01T00:04:06.514Z,12.73
2023-03-01T00:06:33.655Z,12.95
2023-03-01T00:09:00.663Z,13.02
2023-03-01T00:11:30.225Z,12.75
2023-03-01T00:13:59.431Z,13.35
2023-03-01T00:16:32.545Z,12.90
2023-03-01T00:18:59.686Z,12.07
2023-03-01T00:21:27.295Z,12.70
2023-03-01T00:23:54.953Z,12.05
2023-03-01T00:26:23.935Z,16.17
2023-03-01T00:28:51.702Z,19.45
2023-03-01T00:31:22.040Z,19.33
2023-03-01T00:33:48.912Z,16.38
2023-03-01T00:36:17.072Z,17.02
2023-03-01T00:38:46.428Z,15.23
2023-03-01T00:41:16.234Z,17.65
2023-03-01T00:43:43.540Z,16.05
2023-03-01T00:46:20.088Z,16.33
2023-03-01T00:48:47.147Z,15.68
2023-03-01T00:51:28.651Z,15.57
2023-03-01T00:53:57.950Z,13.82
2023-03-01T00:56:25.743Z,14.70
2023-03-01T00:58:52.631Z,14.15
2023-03-01T01:01:22.830Z,14.02
2023-03-01T01:04:00.896Z,14.60
2023-03-01T01:06:34.693Z,14.25
2023-03-01T01:09:02.129Z,14.45
2023-03-01T01:11:30.612Z,14.85
2023-03-01T01:13:59.055Z,13.40
2023-03-01T01:16:27.954Z,13.75
2023-03-01T01:18:55.962Z,13.32
2023-03-01T01:21:26.411Z,14.07
2023-03-01T01:23:53.258Z,14.52
2023-03-01T01:26:21.674Z,14.27
2023-03-01T01:28:48.512Z,14.60
2023-03-01T01:31:16.072Z,14.00
2023-03-01T01:33:43.204Z,14.35
2023-03-01T01:36:10.565Z,14.68
2023-03-01T01:38:39.360Z,14.65
2023-03-01T01:41:06.970Z,15.05
2023-03-01T01:43:39.931Z,14.48
2023-03-01T01:46:26.852Z,16.30
2023-03-01T01:49:19.674Z,14.88
2023-03-01T01:51:49.933Z,15.05
2023-03-01T01:54:28.734Z,14.60
2023-03-01T01:57:13.676Z,15.07
2023-03-01T01:59:44.074Z,15.85
2023-03-01T02:02:11.099Z,15.75
2023-03-01T02:04:37.908Z,16.50
2023-03-01T02:07:17.216Z,14.20
2023-03-01T02:09:48.259Z,15.65
2023-03-01T02:12:18.190Z,15.20
2023-03-01T02:14:45.159Z,15.27
2023-03-01T02:17:15.712Z,14.05
2023-03-01T02:19:54.660Z,13.65
2023-03-01T02:22:33.566Z,15.45
2023-03-01T02:25:06.330Z,15.32
2023-03-01T02:27:57.336Z,14.52
2023-03-01T02:30:25.447Z,14.38
2023-03-01T02:32:54.656Z,14.63
2023-03-01T02:35:22.307Z,14.95
2023-03-01T02:37:49.561Z,14.18
2023-03-01T02:40:19.480Z,14.13
2023-03-01T02:42:56.813Z,14.10
2023-03-01T02:45:24.157Z,13.13
2023-03-01T02:47:51.559Z,13.75
2023-03-01T02:50:30.228Z,13.23
2023-03-01T02:53:11.197Z,13.32
2023-03-01T02:55:38.164Z,14.85
2023-03-01T02:58:05.532Z,13.43
2023-03-01T03:00:52.182Z,13.10
2023-03-01T03:03:21.626Z,14.73
2023-03-01T03:05:49.375Z,13.60
2023-03-01T03:08:25.281Z,14.07
2023-03-01T03:10:52.533Z,13.90
2023-03-01T03:13:20.192Z,13.75
2023-03-01T03:15:47.075Z,13.75
2023-03-01T03:18:16.773Z,14.60
2023-03-01T03:20:44.930Z,14.77
2023-03-01T03:23:12.462Z,13.85
2023-03-01T03:25:39.494Z,15.45
2023-03-01T03:28:10.853Z,13.45
2023-03-01T03:30:42.602Z,14.38
2023-03-01T03:33:14.015Z,14.00
2023-03-01T03:35:44.404Z,14.50
2023-03-01T03:38:16.846Z,13.35
2023-03-01T03:40:49.723Z,13.27
2023-03-01T03:43:19.887Z,13.80
2023-03-01T03:45:52.304Z,13.38
2023-03-01T03:48:20.280Z,12.82
2023-03-01T03:50:55.885Z,14.38
2023-03-01T03:53:24.437Z,13.00
2023-03-01T03:55:52.825Z,13.45
2023-03-01T03:58:22.260Z,14.73
2023-03-01T04:00:51.615Z,14.48
2023-03-01T04:03:20.925Z,13.73
2023-03-01T04:05:48.419Z,14.52
2023-03-01T04:08:15.506Z,14.82
2023-03-01T04:10:45.564Z,14.65
2023-03-01T04:13:15.042Z,14.98
2023-03-01T04:15:44.090Z,14.45
2023-03-01T04:18:14.307Z,15.32
2023-03-01T04:20:41.345Z,14.55
2023-03-01T04:23:14.496Z,16.35
2023-03-01T04:25:50.543Z,15.93
2023-03-01T04:28:17.814Z,13.95
2023-03-01T04:30:44.601Z,15.27
2023-03-01T04:33:12.306Z,15.00
2023-03-01T04:35:40.121Z,15.95
2023-03-01T04:38:07.626Z,15.40
2023-03-01T04:40:34.487Z,13.77
2023-03-01T04:43:01.573Z,14.23
2023-03-01T04:45:28.935Z,14.80
2023-03-01T04:47:55.871Z,14.57
2023-03-01T04:50:24.503Z,14.60
2023-03-01T04:52:51.483Z,14.82
2023-03-01T04:55:18.662Z,15.32
2023-03-01T04:57:45.843Z,15.25
2023-03-01T05:00:21.548Z,15.57
2023-03-01T05:02:56.783Z,15.95
2023-03-01T05:05:33.539Z,14.85
2023-03-01T05:08:03.401Z,15.82
2023-03-01T05:10:31.869Z,15.05
2023-03-01T05:13:00.097Z,15.00
2023-03-01T05:15:28.879Z,14.88
2023-03-01T05:17:59.712Z,16.10
2023-03-01T05:20:29.631Z,15.60
2023-03-01T05:22:59.748Z,16.08
2023-03-01T05:25:27.206Z,15.95
2023-03-01T05:27:54.130Z,17.45
2023-03-01T05:30:21.059Z,17.92
2023-03-01T05:32:50.129Z,17.95
2023-03-01T05:35:19.050Z,17.13
2023-03-01T05:37:49.116Z,16.92
2023-03-01T05:40:19.098Z,16.95
2023-03-01T05:42:47.663Z,17.70
2023-03-01T05:45:16.082Z,17.02
2023-03-01T05:47:47.009Z,16.92
2023-03-01T05:50:26.362Z,17.70
2023-03-01T05:53:00.096Z,17.30
2023-03-01T05:55:29.120Z,17.05
2023-03-01T05:57:56.597Z,17.60
2023-03-01T06:00:23.629Z,16.98
2023-03-01T06:02:51.084Z,16.73
2023-03-01T06:05:17.954Z,17.85
2023-03-01T06:07:45.093Z,17.58
2023-03-01T06:10:13.927Z,18.52
2023-03-01T06:12:43.095Z,17.27
2023-03-01T06:15:12.796Z,16.90
2023-03-01T06:17:41.570Z,17.05
2023-03-01T06:20:18.212Z,16.45
2023-03-01T06:22:45.508Z,15.93
2023-03-01T06:25:13.645Z,16.75
2023-03-01T06:27:40.955Z,17.65
2023-03-01T06:30:08.983Z,16.55
2023-03-01T06:32:35.797Z,16.65
2023-03-01T06:35:02.610Z,16.90
2023-03-01T06:37:29.485Z,15.95
2023-03-01T06:39:56.321Z,16.23
2023-03-01T06:42:23.160Z,17.02
2023-03-01T06:44:49.907Z,17.20
2023-03-01T06:47:16.760Z,16.65
2023-03-01T06:49:43.545Z,17.30
2023-03-01T06:52:10.275Z,17.05
2023-03-01T06:54:37.062Z,17.05
2023-03-01T06:57:03.933Z,16.90
2023-03-01T06:59:30.789Z,16.73
2023-03-01T07:01:57.705Z,19.00
2023-03-01T07:04:24.470Z,16.45
2023-03-01T07:06:56.070Z,17.98
2023-03-01T07:09:24.741Z,18.23
2023-03-01T07:11:51.897Z,17.63
2023-03-01T07:14:18.748Z,18.30
2023-03-01T07:16:45.543Z,17.33
2023-03-01T07:19:12.380Z,19.48
2023-03-01T07:21:41.901Z,19.02
2023-03-01T07:24:09.579Z,18.98
2023-03-01T07:26:36.694Z,17.80
2023-03-01T07:29:05.350Z,19.15
2023-03-01T07:31:33.000Z,18.58
2023-03-01T07:33:59.899Z,18.83
2023-03-01T07:36:26.842Z,20.63
2023-03-01T07:38:53.686Z,19.83
2023-03-01T07:41:20.446Z,19.35
2023-03-01T07:43:47.244Z,17.63
2023-03-01T07:46:14.079Z,18.50
2023-03-01T07:48:41.065Z,19.30
2023-03-01T07:51:08.949Z,19.60
2023-03-01T07:53:36.265Z,17.58
2023-03-01T07:56:05.933Z,18.73
2023-03-01T07:58:34.789Z,18.85
2023-03-01T08:01:09.260Z,17.90
2023-03-01T08:03:37.169Z,19.05
2023-03-01T08:06:06.283Z,18.67
2023-03-01T08:08:33.502Z,19.75
2023-03-01T08:11:02.281Z,17.67
2023-03-01T08:13:29.765Z,17.83
2023-03-01T08:16:05.814Z,19.27
2023-03-01T08:18:32.757Z,18.15
2023-03-01T08:21:10.934Z,18.70
2023-03-01T08:23:37.765Z,19.00
2023-03-01T08:26:09.456Z,19.17
2023-03-01T08:28:36.866Z,18.27
2023-03-01T08:31:04.037Z,19.77
2023-03-01T08:33:30.796Z,19.65
2023-03-01T08:36:07.454Z,18.30
2023-03-01T08:38:35.422Z,19.35
2023-03-01T08:41:03.670Z,19.15
2023-03-01T08:43:31.168Z,19.08
2023-03-01T08:45:58.154Z,18.77
2023-03-01T08:48:25.077Z,18.77
2023-03-01T08:50:52.436Z,19.27
2023-03-01T08:53:19.242Z,19.25
2023-03-01T08:55:46.086Z,18.50
2023-03-01T08:58:13.003Z,18.35
2023-03-01T09:00:39.879Z,18.17
2023-03-01T09:03:06.739Z,18.15
2023-03-01T09:05:35.184Z,18.65
2023-03-01T09:08:02.085Z,18.40
2023-03-01T09:10:28.987Z,18.35
2023-03-01T09:12:56.174Z,18.13
2023-03-01T09:15:23.088Z,17.77
2023-03-01T09:17:49.857Z,18.77
2023-03-01T09:20:17.099Z,19.63
2023-03-01T09:22:44.959Z,17.13
2023-03-01T09:25:11.803Z,18.20
2023-03-01T09:27:38.675Z,17.92
2023-03-01T09:30:06.013Z,17.35
2023-03-01T09:32:32.977Z,17.73
2023-03-01T09:35:05.581Z,16.98
2023-03-01T09:37:34.442Z,16.92
2023-03-01T09:40:01.364Z,17.85
2023-03-01T09:42:32.214Z,16.80
2023-03-01T09:45:21.022Z,17.80
2023-03-01T09:47:49.637Z,16.23
2023-03-01T09:50:20.344Z,15.98
2023-03-01T09:53:10.936Z,16.52
2023-03-01T09:55:43.932Z,16.20
2023-03-01T09:58:32.555Z,17.52
2023-03-01T10:01:13.370Z,16.98
2023-03-01T10:03:53.423Z,16.92
2023-03-01T10:06:34.329Z,15.63
2023-03-01T10:09:30.713Z,14.85
2023-03-01T10:11:57.872Z,14.73
2023-03-01T10:14:36.821Z,14.38
2023-03-01T10:17:24.340Z,14.40
2023-03-01T10:19:51.125Z,14.00
2023-03-01T10:22:22.523Z,15.05
2023-03-01T10:24:50.700Z,14.02
2023-03-01T10:27:23.811Z,15.57
2023-03-01T10:30:14.609Z,13.73
2023-03-01T10:32:41.521Z,14.50
2023-03-01T10:35:28.150Z,14.45
2023-03-01T10:37:59.336Z,13.68
2023-03-01T10:40:26.165Z,14.43
2023-03-01T10:42:53.270Z,14.90
2023-03-01T10:45:34.729Z,13.93
2023-03-01T10:48:25.453Z,13.30
2023-03-01T10:51:07.430Z,14.70
2023-03-01T10:53:50.212Z,13.32
2023-03-01T10:56:17.218Z,14.98
2023-03-01T10:59:00.729Z,13.35
2023-03-01T11:01:30.808Z,14.18
2023-03-01T11:04:12.555Z,13.55
2023-03-01T11:06:41.654Z,14.50
2023-03-01T11:09:23.942Z,13.88
2023-03-01T11:11:59.023Z,12.53
2023-03-01T11:14:34.215Z,13.93
2023-03-01T11:17:03.388Z,13.20
2023-03-01T11:19:30.490Z,13.40
2023-03-01T11:22:20.635Z,12.95
2023-03-01T11:25:08.952Z,12.88
2023-03-01T11:27:41.996Z,11.93
2023-03-01T11:30:25.107Z,12.27
2023-03-01T11:35:44.339Z,11.80
2023-03-01T11:38:24.459Z,10.75
2023-03-01T11:41:12.391Z,10.85
2023-03-01T11:43:59.941Z,11.50
2023-03-01T11:46:33.103Z,10.77
2023-03-01T11:49:08.901Z,11.60
2023-03-01T11:51:47.768Z,10.98
2023-03-01T11:54:29.936Z,10.68
2023-03-01T11:57:18.840Z,10.27
2023-03-01T12:00:00.672Z,10.10
2023-03-01T12:02:48.634Z,10.52
2023-03-01T12:05:33.869Z,11.77
2023-03-01T12:08:09.161Z,11.73
2023-03-01T12:10:57.943Z,10.50
2023-03-01T12:13:57.774Z,9.43
2023-03-01T12:16:39.779Z,11.13
2023-03-01T12:19:22.153Z,9.82
2023-03-01T12:22:26.734Z,9.67
2023-03-01T12:25:30.918Z,10.55
2023-03-01T12:28:23.774Z,9.35
2023-03-01T12:31:31.262Z,10.32
2023-03-01T12:34:28.754Z,10.13
2023-03-01T12:37:01.706Z,10.40
2023-03-01T12:42:32.635Z,10.38
2023-03-01T12:45:21.729Z,10.52
2023-03-01T12:48:03.313Z,11.00
2023-03-01T12:50:50.228Z,9.85
2023-03-01T12:53:30.641Z,10.23
2023-03-01T12:56:10.945Z,9.85
2023-03-01T12:59:05.361Z,10.00
2023-03-01T13:01:50.462Z,9.50
2023-03-01T13:05:00.272Z,8.82
2023-03-01T13:07:51.836Z,9.32
2023-03-01T13:10:24.662Z,8.90
2023-03-01T13:13:04.296Z,9.48
2023-03-01T13:15:34.047Z,8.30
2023-03-01T13:18:03.794Z,11.30
2023-03-01T13:20:30.816Z,9.45
2023-03-01T13:23:09.682Z,10.27
2023-03-01T13:25:56.586Z,10.00
2023-03-01T13:28:51.082Z,8.95
2023-03-01T13:31:21.204Z,10.35
2023-03-01T13:33:50.102Z,8.80
2023-03-01T13:36:30.055Z,9.45
2023-03-01T13:38:59.716Z,9.88
2023-03-01T13:41:44.901Z,9.63
2023-03-01T13:44:27.790Z,9.52
2023-03-01T13:47:04.935Z,8.27
2023-03-01T13:49:58.314Z,8.27
2023-03-01T13:52:28.138Z,7.95
2023-03-01T13:54:56.680Z,8.63
2023-03-01T13:57:30.373Z,8.38
2023-03-01T13:59:57.244Z,7.80
2023-03-01T14:02:24.102Z,8.48
2023-03-01T14:04:59.544Z,8.55
2023-03-01T14:07:30.521Z,8.02
2023-03-01T14:10:06.297Z,7.85
2023-03-01T14:13:16.363Z,7.88
2023-03-01T14:16:19.523Z,8.13
2023-03-01T14:18:53.780Z,8.52
2023-03-01T14:21:20.607Z,9.15
2023-03-01T14:23:47.879Z,7.78
2023-03-01T14:26:20.926Z,7.95
2023-03-01T14:28:49.478Z,7.00
2023-03-01T14:31:52.501Z,7.38
2023-03-01T14:34:25.714Z,7.05
2023-03-01T14:36:52.514Z,7.32
2023-03-01T14:39:27.436Z,6.93
2023-03-01T14:41:54.510Z,7.18
2023-03-01T14:44:25.614Z,7.43
2023-03-01T14:46:56.999Z,7.47
2023-03-01T14:49:28.154Z,7.07
2023-03-01T14:52:36.164Z,6.88
2023-03-01T14:55:07.116Z,5.85
2023-03-01T14:57:40.298Z,7.05
2023-03-01T15:00:11.433Z,6.38
2023-03-01T15:02:40.626Z,6.72
2023-03-01T15:05:09.355Z,6.68
2023-03-01T15:07:40.948Z,6.63
2023-03-01T15:10:25.719Z,6.25
2023-03-01T15:12:54.093Z,5.55
2023-03-01T15:15:31.021Z,5.70
2023-03-01T15:18:00.828Z,8.10
2023-03-01T15:20:31.590Z,8.48
2023-03-01T15:22:59.685Z,7.85
2023-03-01T15:25:29.498Z,8.40
2023-03-01T15:27:58.974Z,7.97
2023-03-01T15:30:38.289Z,11.02
2023-03-01T15:33:33.740Z,8.93
2023-03-01T15:36:03.930Z,9.00
2023-03-01T15:38:59.034Z,8.05
2023-03-01T15:41:38.444Z,7.57
2023-03-01T15:44:27.932Z,6.15
2023-03-01T15:46:57.480Z,6.35
2023-03-01T15:49:49.603Z,5.70
2023-03-01T15:52:29.979Z,5.38
2023-03-01T15:55:06.400Z,5.75
2023-03-01T15:57:33.502Z,5.97
2023-03-01T16:00:00.340Z,4.65
2023-03-01T16:02:27.250Z,4.70
2023-03-01T16:04:54.855Z,4.88
2023-03-01T16:07:21.682Z,4.80
2023-03-01T16:09:48.467Z,4.53
2023-03-01T16:12:17.462Z,5.03
2023-03-01T16:14:44.357Z,6.80
2023-03-01T16:17:11.426Z,7.75
2023-03-01T16:19:41.382Z,7.75
2023-03-01T16:22:10.906Z,7.80
2023-03-01T16:24:37.976Z,7.80
2023-03-01T16:27:04.814Z,8.02
2023-03-01T16:29:31.703Z,8.13
2023-03-01T16:32:02.415Z,8.63
2023-03-01T16:34:29.597Z,8.27
2023-03-01T16:36:56.459Z,9.98
2023-03-01T16:39:23.479Z,9.52
2023-03-01T16:41:50.282Z,10.02
2023-03-01T16:44:17.094Z,9.68
2023-03-01T16:46:44.520Z,8.80
2023-03-01T16:49:11.334Z,9.20
2023-03-01T16:51:38.152Z,10.25
2023-03-01T16:54:05.618Z,10.32
2023-03-01T16:56:35.334Z,9.25
2023-03-01T16:59:04.601Z,9.35
2023-03-01T17:01:38.554Z,9.38
2023-03-01T17:04:06.170Z,8.82
2023-03-01T17:06:33.409Z,8.35
2023-03-01T17:09:00.576Z,7.43
2023-03-01T17:11:27.837Z,8.18
2023-03-01T17:13:54.612Z,7.28
2023-03-01T17:16:22.782Z,6.85
2023-03-01T17:18:50.179Z,6.95
2023-03-01T17:21:17.662Z,7.18
2023-03-01T17:23:46.278Z,7.00
2023-03-01T17:26:13.636Z,8.00
2023-03-01T17:28:40.866Z,8.05
2023-03-01T17:31:07.759Z,6.65
2023-03-01T17:33:34.852Z,6.80
2023-03-01T17:36:02.255Z,7.20
2023-03-01T17:41:00.847Z,7.00
2023-03-01T17:43:27.992Z,7.57
2023-03-01T17:45:55.002Z,7.07
2023-03-01T17:48:21.853Z,7.65
2023-03-01T17:50:49.492Z,7.85
2023-03-01T17:53:16.402Z,8.02
2023-03-01T17:55:44.313Z,6.75
2023-03-01T17:58:14.793Z,7.63
2023-03-01T18:00:41.842Z,7.25
2023-03-01T18:03:08.805Z,7.30
2023-03-01T18:05:38.102Z,7.22
2023-03-01T18:08:05.241Z,7.68
2023-03-01T18:10:32.962Z,7.70
2023-03-01T18:12:59.805Z,8.35
2023-03-01T18:15:27.425Z,8.80
2023-03-01T18:17:54.329Z,8.20
2023-03-01T18:20:21.540Z,8.30
2023-03-01T18:22:49.279Z,7.82
2023-03-01T18:25:16.264Z,7.38
2023-03-01T18:27:43.093Z,7.80
2023-03-01T18:30:10.780Z,7.32
2023-03-01T18:32:48.456Z,7.40
2023-03-01T18:35:15.518Z,6.90
2023-03-01T18:37:42.490Z,7.00
2023-03-01T18:40:09.850Z,6.70
2023-03-01T18:42:36.971Z,7.07
2023-03-01T18:45:06.928Z,7.00
2023-03-01T18:47:33.731Z,6.90
2023-03-01T18:50:00.583Z,7.43
2023-03-01T18:52:27.560Z,6.80
2023-03-01T18:54:54.374Z,7.57
2023-03-01T18:57:21.307Z,7.50
2023-03-01T18:59:48.292Z,6.93
2023-03-01T19:02:18.339Z,6.70
2023-03-01T19:04:45.392Z,6.70
2023-03-01T19:07:12.609Z,7.38
2023-03-01T19:09:40.141Z,7.25
2023-03-01T19:12:07.443Z,7.10
2023-03-01T19:14:34.580Z,7.65
2023-03-01T19:17:01.410Z,7.00
2023-03-01T19:19:28.289Z,7.03
2023-03-01T19:22:05.185Z,7.43
2023-03-01T19:24:32.928Z,7.50
2023-03-01T19:26:59.810Z,6.75
2023-03-01T19:29:26.763Z,7.15
2023-03-01T19:31:53.655Z,6.75
2023-03-01T19:34:22.918Z,7.60
2023-03-01T19:36:49.960Z,7.63
2023-03-01T19:39:16.961Z,6.97
2023-03-01T19:41:44.373Z,9.15
2023-03-01T19:44:12.057Z,9.75
2023-03-01T19:46:39.149Z,8.52
2023-03-01T19:49:06.791Z,9.38
2023-03-01T19:51:36.158Z,9.73
2023-03-01T19:54:04.465Z,10.23
2023-03-01T19:56:31.581Z,11.93
2023-03-01T19:59:00.673Z,11.45
2023-03-01T20:01:32.977Z,12.07
2023-03-01T20:04:01.195Z,12.10
2023-03-01T20:06:30.072Z,11.70
2023-03-01T20:08:57.434Z,10.88
2023-03-01T20:11:24.798Z,10.75
2023-03-01T20:13:51.738Z,11.55
2023-03-01T20:16:20.224Z,12.98
2023-03-01T20:18:47.313Z,13.52
2023-03-01T20:21:24.136Z,14.65
2023-03-01T20:23:51.766Z,12.50
2023-03-01T20:26:21.933Z,13.35
2023-03-01T20:28:51.531Z,13.05
2023-03-01T20:31:20.292Z,12.48
2023-03-01T20:33:47.469Z,14.40
2023-03-01T20:36:14.603Z,12.68
2023-03-01T20:38:41.486Z,12.30
2023-03-01T20:41:11.009Z,12.63
2023-03-01T20:43:38.816Z,12.90
2023-03-01T20:46:07.716Z,14.13
2023-03-01T20:48:34.910Z,17.90
2023-03-01T20:51:06.102Z,13.77
2023-03-01T20:53:33.481Z,14.45
2023-03-01T20:56:05.085Z,13.52
2023-03-01T20:58:33.863Z,15.15
2023-03-01T21:01:01.267Z,13.60
2023-03-01T21:03:28.612Z,14.05
2023-03-01T21:06:00.156Z,13.75
2023-03-01T21:08:26.924Z,13.73
2023-03-01T21:10:55.401Z,13.70
2023-03-01T21:13:23.466Z,13.48
2023-03-01T21:15:54.254Z,13.73
2023-03-01T21:18:21.340Z,12.40
2023-03-01T21:20:48.637Z,13.65
2023-03-01T21:23:15.997Z,18.23
2023-03-01T21:25:42.983Z,17.85
2023-03-01T21:28:09.867Z,16.15
2023-03-01T21:30:36.726Z,15.85
2023-03-01T21:33:06.024Z,14.60
2023-03-01T21:35:32.843Z,15.63
2023-03-01T21:37:59.620Z,16.00
2023-03-01T21:40:26.511Z,16.58
2023-03-01T21:42:53.429Z,15.73
2023-03-01T21:45:20.536Z,14.85
2023-03-01T21:47:47.808Z,14.48
2023-03-01T21:50:14.657Z,14.93
2023-03-01T21:52:44.475Z,15.25
2023-03-01T21:55:12.892Z,15.32
2023-03-01T21:57:43.709Z,14.48
2023-03-01T22:00:13.181Z,18.48
2023-03-01T22:02:40.255Z,17.92
2023-03-01T22:05:07.628Z,17.25
2023-03-01T22:07:34.586Z,19.27
2023-03-01T22:10:01.609Z,18.60
2023-03-01T22:12:29.660Z,17.45
2023-03-01T22:14:56.652Z,18.17
2023-03-01T22:17:23.509Z,16.83
2023-03-01T22:19:50.365Z,16.33
2023-03-01T22:22:17.172Z,17.35
2023-03-01T22:24:43.978Z,16.70
2023-03-01T22:27:10.886Z,16.83
2023-03-01T22:29:37.659Z,17.35
2023-03-01T22:32:04.960Z,16.20
2023-03-01T22:34:31.869Z,16.40
2023-03-01T22:36:58.723Z,15.85
2023-03-01T22:39:25.456Z,14.82
2023-03-01T22:41:55.013Z,14.77
2023-03-01T22:44:22.788Z,15.10
2023-03-01T22:46:50.181Z,14.98
2023-03-01T22:49:18.148Z,14.57
2023-03-01T22:51:47.503Z,14.27
2023-03-01T22:54:15.360Z,17.10
2023-03-01T22:56:43.212Z,15.15
2023-03-01T22:59:13.490Z,16.85
2023-03-01T23:01:42.330Z,15.68
2023-03-01T23:04:09.191Z,16.02
2023-03-01T23:06:50.107Z,15.85
2023-03-01T23:09:23.458Z,16.10
2023-03-01T23:11:51.374Z,17.45
2023-03-01T23:14:19.342Z,15.98
2023-03-01T23:16:46.175Z,16.35
2023-03-01T23:19:13.324Z,16.40
2023-03-01T23:21:44.287Z,14.02
2023-03-01T23:24:11.237Z,15.70
2023-03-01T23:26:40.347Z,13.98
2023-03-01T23:29:07.926Z,13.65
2023-03-01T23:31:35.272Z,14.98
2023-03-01T23:34:02.576Z,15.32
2023-03-01T23:36:32.293Z,13.52
2023-03-01T23:39:05.384Z,13.95
2023-03-01T23:44:05.315Z,13.40
2023-03-01T23:46:35.000Z,13.85
2023-03-01T23:49:03.217Z,15.07
2023-03-01T23:51:30.088Z,14.00
2023-03-01T23:54:00.136Z,13.68
2023-03-01T23:56:31.583Z,11.98
2023-03-01T23:59:00.955Z,12.38
